South Harwich, MA

9:48 PM EDT on April 01, 2015 (GMT -0400)
N2KNL / KB1VAJ Amateur Radio | | Change Station
CLOSE
Current Station
Personal Weather Station
Location: Harwich Weather, MA
Elevation: 36 ft
Nearby Weather Stations

Elev 36 ft 41.68 °N, 70.06 °W | Updated 1 second ago

Clear
Clear
33.2 °F
Feels Like 33 °F
N
0.3
Wind Variable Wind from SW
Gusts 1.2 mph

Today
High -- | Low -- °F
--% Chance of Precip.
Yesterday
High -- | Low -- °F
Precip. -- in
6:23 AM 7:05 PM
Waxing Gibbous, 95% visible
Pressure 30.16 in
Visibility 10.0 miles
Clouds Clear
Windchill 33 °F
Dew Point 27 °F
Humidity 77%
Rainfall 0.00 in
Snow Depth Not available.
UV 0 out of 12
Pollen 6.90 out of 12
Air Quality Not available.
Flu Activity Not available.
METAR KCQX 020052Z AUTO 24004KT 10SM CLR 01/M04 A3015 RMK AO2 SLP212 T00111044

More Conditions Fewer Conditions

Pressure 30.16 in
Visibility 10.0 miles
Clouds Clear
Windchill 33 °F
Dew Point 27 °F
Humidity 77%
Rainfall 0.00 in
Snow Depth Not available.
UV 0 out of 12
Pollen 6.90 out of 12
Air Quality Not available.
Flu Activity Not available.
METAR KCQX 020052Z AUTO 24004KT 10SM CLR 01/M04 A3015 RMK AO2 SLP212 T00111044

More Conditions Fewer Conditions

10-Day Weather Forecast

Almanac

Astronomy

Apr. 01, 2015 Rise Set
Actual Time
Civil Twilight
Nautical Twilight
Astronomical Twilight
Moon
Length of Visible Light
Length of Day
Tomorrow will be .
, % of the Moon is Illuminated

Today's Extremes

State Highs State Lows

Community

WunderPhotos

Upload Photos

1,810,150 photos uploaded!

WunderBlogs® & News

Nearby

Air Quality

  Air Quality AQ Index Pollutant
Not available.

Snow Depth

Station Depth Elevation

Earthquake Activity

City Distance Mag. Time & Date
Minimum magnitude displayed is 2.5.

Coastal Water Temperatures

Place Temperature

Stations

Nearby Weather Stations

Station Location Temp. Windchill Dew Point Humidity Wind Precip. Elev Updated Type